Time;durP1;ratioP1;P1;durP2;ratioP2;P2;SDS_P1;SDS_P2;PMS_P1;PMS_P2;Temp;Humidity;BMP_temperature;BMP_pressure;BME280_temperature;BME280_humidity;BME280_pressure;Samples;Min_cycle;Max_cycle;Signal;HPM_P1;HPM_P2
2023/03/10 00:00:42;;;;;;;;;;;;;;;20.76;44.12;98965.69;4954721;28;4396;-61
2023/03/10 00:03:08;;;;;;;;;;;;;;;20.79;44.10;98952.03;4953141;28;4076;-61
2023/03/10 00:05:35;;;;;;;;;;;;;;;20.79;44.26;98949.88;4956116;28;4075;-62
2023/03/10 00:08:01;;;;;;;;;;;;;;;20.81;44.37;98944.16;4955074;28;4106;-61
2023/03/10 00:10:28;;;;;;;;;;;;;;;20.82;44.26;98939.13;4956987;28;4054;-61
2023/03/10 00:12:54;;;;;;;;;;;;;;;20.84;44.33;98936.28;4953918;28;4226;-61
2023/03/10 00:15:20;;;;;;;;;;;;;;;20.83;44.33;98940.59;4958380;28;5478;-61
2023/03/10 00:17:48;;;;;;;;;;;;;;;20.84;44.44;98933.41;4954904;28;4249;-61
2023/03/10 00:20:15;;;;;;;;;;;;;;;20.83;44.60;98935.56;4955646;28;3936;-62
2023/03/10 00:22:41;;;;;;;;;;;;;;;20.82;44.69;98942.75;4955960;28;4116;-61
2023/03/10 00:25:08;;;;;;;;;;;;;;;20.82;44.49;98928.38;4956576;28;4205;-61
2023/03/10 00:27:34;;;;;;;;;;;;;;;20.81;44.72;98915.41;4954228;28;4143;-62
2023/03/10 00:30:01;;;;;;;;;;;;;;;20.80;44.54;98905.34;4954987;28;4185;-61
2023/03/10 00:32:27;;;;;;;;;;;;;;;20.79;44.68;98895.25;4954036;28;4073;-61
2023/03/10 00:34:53;;;;;;;;;;;;;;;20.79;44.63;98906.75;4954456;28;4268;-61
2023/03/10 00:37:20;;;;;;;;;;;;;;;20.78;44.47;98887.31;4950563;28;4194;-61
2023/03/10 00:39:50;;;;;;;;;;;;;;;20.77;44.52;98886.59;4944826;28;5411;-61
2023/03/10 00:42:16;;;;;;;;;;;;;;;20.78;44.66;98887.31;4952271;28;4177;-61
2023/03/10 00:44:42;;;;;;;;;;;;;;;20.77;44.70;98886.59;4934597;28;4219;-62
2023/03/10 00:47:09;;;;;;;;;;;;;;;20.78;44.56;98888.06;4950057;28;4191;-62
2023/03/10 00:49:35;;;;;;;;;;;;;;;20.78;44.62;98881.56;4945670;28;5192;-62
2023/03/10 00:52:01;;;;;;;;;;;;;;;20.80;44.63;98867.19;4927948;28;5377;-62
2023/03/10 00:54:28;;;;;;;;;;;;;;;20.82;44.71;98865.09;4935344;28;5220;-62
2023/03/10 00:56:54;;;;;;;;;;;;;;;20.83;44.58;98849.28;4939731;29;4170;-61
2023/03/10 00:59:21;;;;;;;;;;;;;;;20.84;44.83;98847.84;4939641;28;3993;-61
2023/03/10 01:01:47;;;;;;;;;;;;;;;20.83;44.63;98837.78;4937460;28;4277;-61
2023/03/10 01:04:14;;;;;;;;;;;;;;;20.82;44.60;98824.81;4939652;29;4440;-61
2023/03/10 01:06:41;;;;;;;;;;;;;;;20.83;44.83;98820.50;4934291;28;5616;-62
2023/03/10 01:09:07;;;;;;;;;;;;;;;20.81;44.69;98806.09;4927755;29;4093;-61
2023/03/10 01:11:33;;;;;;;;;;;;;;;20.80;44.87;98793.16;4935862;28;5751;-62
2023/03/10 01:14:01;;;;;;;;;;;;;;;20.80;44.91;98803.91;4920073;29;6401;-61
2023/03/10 01:16:27;;;;;;;;;;;;;;;20.79;44.88;98783.06;4939864;29;5307;-61
2023/03/10 01:18:54;;;;;;;;;;;;;;;20.78;44.83;98789.53;4926008;29;5270;-61
2023/03/10 01:21:24;;;;;;;;;;;;;;;20.77;44.81;98785.19;4928711;29;5354;-61
2023/03/10 01:23:50;;;;;;;;;;;;;;;20.76;44.67;98775.84;4939134;29;4136;-61
2023/03/10 01:26:17;;;;;;;;;;;;;;;20.75;44.83;98774.38;4924535;28;4225;-61
2023/03/10 01:28:45;;;;;;;;;;;;;;;20.76;44.74;98775.84;4925411;28;4154;-61
2023/03/10 01:31:11;;;;;;;;;;;;;;;20.77;44.83;98765.06;4936240;28;4256;-61
2023/03/10 01:33:41;;;;;;;;;;;;;;;20.77;44.65;98760.03;4930050;28;4229;-62
2023/03/10 01:36:12;;;;;;;;;;;;;;;20.78;44.72;98764.38;4928230;29;5349;-61
2023/03/10 01:38:38;;;;;;;;;;;;;;;20.81;44.91;98753.63;4933787;28;5538;-61
2023/03/10 01:41:04;;;;;;;;;;;;;;;20.82;44.81;98749.28;4935066;28;4202;-61
2023/03/10 01:43:31;;;;;;;;;;;;;;;20.81;44.64;98739.94;4938612;29;4393;-61
2023/03/10 01:46:01;;;;;;;;;;;;;;;20.83;44.65;98739.97;4937963;28;4156;-61
2023/03/10 01:48:31;;;;;;;;;;;;;;;20.82;44.74;98727.03;4940287;29;5363;-61
2023/03/10 01:50:57;;;;;;;;;;;;;;;20.82;44.88;98727.03;4930532;28;4030;-61
2023/03/10 01:53:24;;;;;;;;;;;;;;;20.80;44.83;98709.00;4926738;29;4267;-61
2023/03/10 01:55:51;;;;;;;;;;;;;;;20.79;44.97;98705.41;4938024;28;4204;-61
2023/03/10 01:58:18;;;;;;;;;;;;;;;20.78;44.79;98697.50;4922268;29;4267;-61
2023/03/10 02:00:45;;;;;;;;;;;;;;;20.78;45.07;98698.22;4918546;28;4150;-61
2023/03/10 02:03:14;;;;;;;;;;;;;;;20.77;44.86;98678.78;4939050;28;5471;-61
2023/03/10 02:05:50;;;;;;;;;;;;;;;20.75;44.89;98679.47;4906742;28;4160;-62
2023/03/10 02:08:17;;;;;;;;;;;;;;;20.74;44.96;98663.66;4910697;29;5199;-61
2023/03/10 02:10:43;;;;;;;;;;;;;;;20.76;44.80;98674.47;4906154;28;4143;-61
2023/03/10 02:13:09;;;;;;;;;;;;;;;20.77;44.71;98667.28;4914174;29;5229;-61
2023/03/10 02:15:36;;;;;;;;;;;;;;;20.78;44.95;98652.22;4943687;29;4175;-61
2023/03/10 02:18:02;;;;;;;;;;;;;;;20.78;44.89;98646.47;4923755;28;4178;-61
2023/03/10 02:20:37;;;;;;;;;;;;;;;20.81;44.96;98644.31;4923659;29;5429;-61
2023/03/10 02:23:03;;;;;;;;;;;;;;;20.80;44.79;98643.59;4905465;29;4210;-61
2023/03/10 02:25:32;;;;;;;;;;;;;;;20.80;44.79;98620.59;4931274;29;4281;-61
2023/03/10 02:28:00;;;;;;;;;;;;;;;20.79;44.90;98622.00;4937981;28;4409;-61
2023/03/10 02:30:28;;;;;;;;;;;;;;;20.79;44.97;98616.25;4921467;28;4368;-61
2023/03/10 02:32:56;;;;;;;;;;;;;;;20.79;44.96;98604.03;4912661;29;4157;-61
2023/03/10 02:35:22;;;;;;;;;;;;;;;20.78;44.83;98600.44;4928910;29;4308;-61
2023/03/10 02:37:54;;;;;;;;;;;;;;;20.77;44.89;98587.47;4926446;29;4255;-61
2023/03/10 02:40:20;;;;;;;;;;;;;;;20.76;45.09;98586.03;4945493;28;4231;-61
2023/03/10 02:42:47;;;;;;;;;;;;;;;20.75;44.85;98578.09;4928400;29;5346;-61
2023/03/10 02:45:14;;;;;;;;;;;;;;;20.74;45.13;98574.53;4923678;29;4247;-61
2023/03/10 02:47:40;;;;;;;;;;;;;;;20.74;44.88;98570.94;4940854;28;6271;-62
2023/03/10 02:50:07;;;;;;;;;;;;;;;20.73;44.98;98563.72;4948398;28;4165;-61
2023/03/10 02:52:35;;;;;;;;;;;;;;;20.73;44.97;98570.22;4946833;28;4146;-61
2023/03/10 02:55:02;;;;;;;;;;;;;;;20.74;44.89;98570.94;4947666;28;4192;-61
2023/03/10 02:57:28;;;;;;;;;;;;;;;20.75;44.85;98567.31;4959549;28;4197;-61
2023/03/10 02:59:54;;;;;;;;;;;;;;;20.76;44.95;98568.78;4959660;28;4024;-61
2023/03/10 03:02:21;;;;;;;;;;;;;;;20.77;44.73;98564.47;4960597;28;4052;-61
2023/03/10 03:04:47;;;;;;;;;;;;;;;20.78;44.86;98548.69;4960504;28;5461;-61
2023/03/10 03:07:13;;;;;;;;;;;;;;;20.78;44.96;98537.16;4946643;28;4105;-61
2023/03/10 03:09:40;;;;;;;;;;;;;;;20.79;44.62;98529.97;4955029;28;4201;-61
2023/03/10 03:12:06;;;;;;;;;;;;;;;20.78;44.82;98528.53;4946498;28;5588;-61
2023/03/10 03:14:33;;;;;;;;;;;;;;;20.78;44.97;98513.44;4960537;28;4181;-61
2023/03/10 03:17:01;;;;;;;;;;;;;;;20.77;45.00;98512.00;4949311;28;5190;-61
2023/03/10 03:19:27;;;;;;;;;;;;;;;20.75;44.98;98509.81;4960173;28;5252;-61
2023/03/10 03:21:56;;;;;;;;;;;;;;;20.75;44.99;98504.06;4946405;28;4185;-61
2023/03/10 03:24:23;;;;;;;;;;;;;;;20.73;45.06;98503.31;4946532;28;4192;-61
2023/03/10 03:26:49;;;;;;;;;;;;;;;20.74;44.96;98496.88;4956709;28;4218;-61
2023/03/10 03:29:19;;;;;;;;;;;;;;;20.74;45.12;98499.03;4945667;28;5233;-61
2023/03/10 03:31:46;;;;;;;;;;;;;;;20.74;45.04;98496.88;4948678;28;5218;-61
2023/03/10 03:34:19;;;;;;;;;;;;;;;20.74;44.88;98491.13;4959264;28;5009;-61
2023/03/10 03:36:47;;;;;;;;;;;;;;;20.74;45.00;98485.38;4948651;28;5248;-61
2023/03/10 03:39:18;;;;;;;;;;;;;;;20.75;45.07;98481.06;4941013;28;4180;-61
2023/03/10 03:41:52;;;;;;;;;;;;;;;20.75;44.88;98478.19;4947909;28;5652;-61
2023/03/10 03:44:18;;;;;;;;;;;;;;;20.75;44.95;98469.56;4960366;28;4069;-61
2023/03/10 03:46:46;;;;;;;;;;;;;;;20.76;45.04;98476.75;4944119;28;4293;-61
2023/03/10 03:49:12;;;;;;;;;;;;;;;20.78;44.88;98468.16;4964084;28;4204;-61
2023/03/10 03:51:38;;;;;;;;;;;;;;;20.78;45.05;98462.41;4958947;28;4342;-62
2023/03/10 03:54:05;;;;;;;;;;;;;;;20.79;45.07;98458.09;4964938;28;4144;-61
2023/03/10 03:56:34;;;;;;;;;;;;;;;20.82;44.87;98444.44;4940586;28;4249;-62
2023/03/10 03:59:01;;;;;;;;;;;;;;;20.81;44.85;98443.72;4951970;28;4128;-61
2023/03/10 04:01:27;;;;;;;;;;;;;;;20.83;44.88;98446.59;4947294;28;5333;-62
2023/03/10 04:03:55;;;;;;;;;;;;;;;20.84;44.99;98436.53;4937134;28;4173;-61
2023/03/10 04:06:22;;;;;;;;;;;;;;;20.85;45.03;98425.78;4946649;28;6360;-61
2023/03/10 04:08:49;;;;;;;;;;;;;;;20.85;45.07;98429.38;4948324;28;4367;-61
2023/03/10 04:11:16;;;;;;;;;;;;;;;20.85;44.95;98417.88;4941295;28;5307;-62
2023/03/10 04:13:45;;;;;;;;;;;;;;;20.86;45.01;98427.19;4965366;28;5311;-61
2023/03/10 04:16:12;;;;;;;;;;;;;;;20.85;45.02;98414.28;4945858;28;4111;-61
2023/03/10 04:18:39;;;;;;;;;;;;;;;20.84;44.98;98419.28;4958656;28;4167;-62
2023/03/10 04:21:08;;;;;;;;;;;;;;;20.83;44.96;98412.09;4938135;28;4433;-61
2023/03/10 04:23:35;;;;;;;;;;;;;;;20.83;45.04;98414.97;4938675;28;4198;-62
2023/03/10 04:26:05;;;;;;;;;;;;;;;20.83;45.16;98405.63;4950569;28;5331;-62
2023/03/10 04:28:32;;;;;;;;;;;;;;;20.88;45.09;98407.81;4962500;28;5432;-62
2023/03/10 04:30:58;;;;;;;;;;;;;;;20.84;45.11;98418.56;4956723;28;5141;-62
2023/03/10 04:33:28;;;;;;;;;;;;;;;20.76;45.21;98418.53;4956259;28;4074;-61
2023/03/10 04:35:55;;;;;;;;;;;;;;;20.53;44.98;98414.75;4951466;28;4230;-62
2023/03/10 04:38:22;;;;;;;;;;;;;;;20.59;44.87;98403.31;4953959;28;4075;-61
2023/03/10 04:40:53;;;;;;;;;;;;;;;20.64;45.27;98396.19;4939629;28;4191;-61
2023/03/10 04:43:20;;;;;;;;;;;;;;;20.67;45.08;98398.34;4939489;28;4196;-61
2023/03/10 04:45:47;;;;;;;;;;;;;;;20.71;44.96;98389.03;4943433;28;4233;-61
2023/03/10 04:48:14;;;;;;;;;;;;;;;20.73;45.20;98374.66;4964853;28;4139;-61
2023/03/10 04:50:40;;;;;;;;;;;;;;;20.75;44.84;98365.31;4937373;28;4209;-61
2023/03/10 04:53:07;;;;;;;;;;;;;;;20.76;45.16;98366.78;4933140;28;4298;-61
2023/03/10 04:55:33;;;;;;;;;;;;;;;20.78;45.22;98363.91;4953751;28;4885;-61
2023/03/10 04:58:01;;;;;;;;;;;;;;;20.79;45.13;98360.31;4938988;28;5062;-61
2023/03/10 05:00:28;;;;;;;;;;;;;;;20.80;45.35;98356.00;4955719;28;4169;-61
2023/03/10 05:02:54;;;;;;;;;;;;;;;20.82;45.28;98350.28;4943271;28;4880;-61
2023/03/10 05:05:21;;;;;;;;;;;;;;;20.83;45.27;98337.31;4963221;28;4206;-61
2023/03/10 05:07:47;;;;;;;;;;;;;;;20.84;45.43;98333.00;4942209;28;4174;-61
2023/03/10 05:10:14;;;;;;;;;;;;;;;20.85;45.38;98330.88;4939244;28;4052;-61
2023/03/10 05:12:41;;;;;;;;;;;;;;;20.85;45.46;98333.75;4956927;28;4284;-61
2023/03/10 05:15:08;;;;;;;;;;;;;;;20.84;45.37;98327.25;4945778;28;4002;-61
2023/03/10 05:17:34;;;;;;;;;;;;;;;20.84;45.52;98326.53;4944228;28;5449;-62
2023/03/10 05:20:03;;;;;;;;;;;;;;;20.82;45.49;98327.25;4944685;28;4248;-61
2023/03/10 05:22:30;;;;;;;;;;;;;;;20.82;45.60;98312.88;4946447;28;5362;-61
2023/03/10 05:24:56;;;;;;;;;;;;;;;20.81;45.61;98314.31;4955808;28;5073;-61
2023/03/10 05:27:23;;;;;;;;;;;;;;;20.81;45.69;98308.53;4955500;28;4868;-61
2023/03/10 05:29:49;;;;;;;;;;;;;;;20.80;45.50;98306.38;4962383;28;4157;-61
2023/03/10 05:32:22;;;;;;;;;;;;;;;20.79;45.55;98302.78;4944661;28;4247;-61
2023/03/10 05:34:49;;;;;;;;;;;;;;;20.77;45.57;98297.03;4944683;28;5325;-61
2023/03/10 05:37:15;;;;;;;;;;;;;;;20.77;45.59;98296.31;4943445;28;4223;-61
2023/03/10 05:39:42;;;;;;;;;;;;;;;20.75;45.72;98297.00;4960737;28;4128;-61
2023/03/10 05:42:13;;;;;;;;;;;;;;;20.76;45.48;98303.50;4942384;28;4190;-61
2023/03/10 05:44:41;;;;;;;;;;;;;;;20.76;45.57;98301.34;4962328;28;5368;-61
2023/03/10 05:47:08;;;;;;;;;;;;;;;20.76;45.40;98292.72;4945495;28;4216;-61
2023/03/10 05:49:34;;;;;;;;;;;;;;;20.78;45.48;98295.59;4950612;28;4226;-63
2023/03/10 05:52:04;;;;;;;;;;;;;;;20.79;45.69;98297.03;4945208;28;4141;-61
2023/03/10 05:54:31;;;;;;;;;;;;;;;20.80;45.49;98297.75;4949583;28;4174;-62
2023/03/10 05:56:57;;;;;;;;;;;;;;;20.81;45.48;98293.44;4954472;28;4039;-61
2023/03/10 05:59:26;;;;;;;;;;;;;;;20.83;45.67;98294.19;4941247;28;4099;-61
2023/03/10 06:01:53;;;;;;;;;;;;;;;20.83;45.49;98285.56;4949089;28;4177;-62
2023/03/10 06:04:19;;;;;;;;;;;;;;;20.83;45.80;98285.56;4962487;28;5245;-62
2023/03/10 06:06:46;;;;;;;;;;;;;;;20.85;45.66;98285.56;4954847;28;3996;-61
2023/03/10 06:09:12;;;;;;;;;;;;;;;20.84;45.77;98284.09;4958304;28;4233;-62
2023/03/10 06:11:38;;;;;;;;;;;;;;;20.86;45.95;98277.66;4958226;28;4252;-62
2023/03/10 06:14:05;;;;;;;;;;;;;;;20.87;46.08;98268.31;4955993;28;4130;-62
2023/03/10 06:16:31;;;;;;;;;;;;;;;20.85;45.97;98259.69;4957834;28;4153;-62
2023/03/10 06:18:57;;;;;;;;;;;;;;;20.92;45.80;98263.28;4954068;28;4116;-62
2023/03/10 06:21:24;;;;;;;;;;;;;;;20.81;45.70;98265.41;4951732;28;4228;-62
2023/03/10 06:23:51;;;;;;;;;;;;;;;20.78;45.79;98260.38;4956413;28;4223;-62
2023/03/10 06:26:17;;;;;;;;;;;;;;;20.84;45.98;98269.00;4952060;28;5325;-62
2023/03/10 06:28:44;;;;;;;;;;;;;;;20.93;46.70;98259.69;4956602;28;4208;-63
2023/03/10 06:31:12;;;;;;;;;;;;;;;20.97;46.15;98264.03;4950385;28;4854;-65
2023/03/10 06:33:38;;;;;;;;;;;;;;;20.95;46.51;98255.38;4954876;28;4193;-65
2023/03/10 06:36:04;;;;;;;;;;;;;;;20.93;46.44;98268.31;4956221;28;4100;-64
2023/03/10 06:38:31;;;;;;;;;;;;;;;20.91;46.39;98261.84;4960122;28;4159;-64
2023/03/10 06:40:57;;;;;;;;;;;;;;;20.90;46.70;98261.13;4956719;28;5293;-64
2023/03/10 06:43:24;;;;;;;;;;;;;;;20.91;46.89;98251.06;4960237;28;4239;-64
2023/03/10 06:45:50;;;;;;;;;;;;;;;20.90;46.72;98249.63;4958213;28;4543;-64
2023/03/10 06:48:16;;;;;;;;;;;;;;;20.91;46.70;98248.19;4955494;28;4127;-64
2023/03/10 06:50:49;;;;;;;;;;;;;;;20.96;46.47;98245.31;4954221;28;5319;-69
2023/03/10 06:53:16;;;;;;;;;;;;;;;20.97;46.48;98243.88;4958250;28;4118;-63
2023/03/10 06:55:42;;;;;;;;;;;;;;;20.96;46.42;98248.19;4948698;28;4156;-63
2023/03/10 06:58:09;;;;;;;;;;;;;;;20.96;46.45;98248.19;4958914;28;4210;-63
2023/03/10 07:00:35;;;;;;;;;;;;;;;20.96;45.98;98248.19;4960642;28;4138;-62
2023/03/10 07:03:02;;;;;;;;;;;;;;;20.98;45.95;98251.06;4959186;28;5297;-63
2023/03/10 07:05:28;;;;;;;;;;;;;;;20.99;45.93;98253.25;4960148;28;4092;-63
2023/03/10 07:07:54;;;;;;;;;;;;;;;21.00;46.06;98253.97;4958407;28;5356;-63
2023/03/10 07:10:21;;;;;;;;;;;;;;;21.29;46.24;98246.81;4964119;28;4679;-66
2023/03/10 07:12:53;;;;;;;;;;;;;;;21.48;45.84;98258.38;4967464;28;5416;-64
2023/03/10 07:15:21;;;;;;;;;;;;;;;21.55;45.58;98259.81;4963199;28;4104;-64
2023/03/10 07:17:47;;;;;;;;;;;;;;;21.58;45.43;98252.63;4964082;28;5263;-64
2023/03/10 07:20:13;;;;;;;;;;;;;;;21.61;45.37;98256.94;4963674;28;4213;-64
2023/03/10 07:22:40;;;;;;;;;;;;;;;21.61;45.20;98256.22;4960156;28;6208;-64
2023/03/10 07:25:06;;;;;;;;;;;;;;;21.66;45.38;98255.47;4957349;28;5286;-65
2023/03/10 07:27:32;;;;;;;;;;;;;;;21.71;45.19;98241.81;4957215;28;4671;-65
2023/03/10 07:29:59;;;;;;;;;;;;;;;21.68;45.36;98249.72;4961177;28;5287;-64
2023/03/10 07:32:25;;;;;;;;;;;;;;;21.65;44.90;98251.19;4958266;28;4423;-64
2023/03/10 07:34:51;;;;;;;;;;;;;;;21.62;45.09;98246.84;4960037;28;4150;-64
2023/03/10 07:37:18;;;;;;;;;;;;;;;21.61;45.48;98251.16;4960885;28;5427;-63
2023/03/10 07:39:44;;;;;;;;;;;;;;;21.54;45.99;98252.63;4959273;28;4123;-63
2023/03/10 07:42:10;;;;;;;;;;;;;;;21.50;45.67;98246.84;4961452;28;5841;-66
2023/03/10 07:44:37;;;;;;;;;;;;;;;21.58;45.32;98254.75;4959830;28;4288;-64
2023/03/10 07:47:03;;;;;;;;;;;;;;;21.62;45.17;98246.84;4962336;28;4287;-64
2023/03/10 07:49:29;;;;;;;;;;;;;;;21.68;45.41;98249.72;4960231;28;4186;-65
2023/03/10 07:51:56;;;;;;;;;;;;;;;21.74;45.33;98240.38;4959267;28;4234;-60
2023/03/10 07:54:22;;;;;;;;;;;;;;;21.74;45.24;98243.97;4960290;28;4184;-61
2023/03/10 07:56:48;;;;;;;;;;;;;;;21.61;45.71;98251.16;4958873;28;5745;-62
2023/03/10 07:59:16;;;;;;;;;;;;;;;21.63;45.67;98236.78;4960478;28;4038;-61
2023/03/10 08:01:42;;;;;;;;;;;;;;;21.66;45.35;98252.59;4959246;28;5203;-62
2023/03/10 08:04:11;;;;;;;;;;;;;;;21.64;45.52;98241.09;4963078;28;4040;-60
2023/03/10 08:06:37;;;;;;;;;;;;;;;21.71;45.03;98236.75;4957326;28;4198;-64
2023/03/10 08:09:04;;;;;;;;;;;;;;;21.75;45.36;98231.00;4959291;28;4360;-64
2023/03/10 08:11:30;;;;;;;;;;;;;;;21.81;45.43;98241.81;4956544;28;4213;-61
2023/03/10 08:13:56;;;;;;;;;;;;;;;21.84;45.23;98228.84;4958436;28;4183;-61
2023/03/10 08:16:23;;;;;;;;;;;;;;;21.89;45.07;98238.19;4956309;28;4146;-61
2023/03/10 08:18:50;;;;;;;;;;;;;;;21.90;45.20;98239.63;4957277;28;5420;-61
2023/03/10 08:21:17;;;;;;;;;;;;;;;21.87;45.62;98236.03;4958604;28;4128;-64
2023/03/10 08:23:43;;;;;;;;;;;;;;;21.91;45.72;98235.31;4955141;28;5492;-63
2023/03/10 08:26:11;;;;;;;;;;;;;;;21.82;44.96;98233.88;4955811;28;4198;-65
2023/03/10 08:28:37;;;;;;;;;;;;;;;21.72;45.64;98238.22;4954536;28;5179;-64
2023/03/10 08:31:11;;;;;;;;;;;;;;;21.70;45.71;98235.34;4953313;28;4077;-66
2023/03/10 08:33:37;;;;;;;;;;;;;;;21.67;45.53;98241.78;4953140;28;4194;-65
2023/03/10 08:36:04;;;;;;;;;;;;;;;21.69;45.66;98236.78;4956472;28;4222;-63
2023/03/10 08:38:31;;;;;;;;;;;;;;;21.78;45.21;98237.47;4959094;28;4187;-62
2023/03/10 08:40:57;;;;;;;;;;;;;;;21.79;44.99;98253.31;4958638;28;5253;-65
2023/03/10 08:43:24;;;;;;;;;;;;;;;21.80;44.86;98254.03;4958344;28;4536;-65
2023/03/10 08:45:50;;;;;;;;;;;;;;;21.88;44.92;98251.16;4956528;28;5301;-64
2023/03/10 08:48:16;;;;;;;;;;;;;;;21.90;45.01;98262.69;4955723;28;4591;-63
2023/03/10 08:50:43;;;;;;;;;;;;;;;21.83;45.15;98269.88;4950441;28;4719;-63
2023/03/10 08:53:11;;;;;;;;;;;;;;;21.78;45.41;98262.69;4958322;28;4288;-63
2023/03/10 08:55:38;;;;;;;;;;;;;;;21.88;45.32;98277.09;4955794;28;4165;-63
2023/03/10 08:58:04;;;;;;;;;;;;;;;21.96;44.76;98265.53;4956081;28;5223;-64
2023/03/10 09:00:30;;;;;;;;;;;;;;;21.93;45.07;98267.72;4953138;28;4302;-63
2023/03/10 09:02:57;;;;;;;;;;;;;;;21.99;45.20;98269.88;4952393;28;4184;-62
2023/03/10 09:05:23;;;;;;;;;;;;;;;21.71;45.23;98270.59;4953024;28;4285;-66
2023/03/10 09:07:49;;;;;;;;;;;;;;;21.68;45.29;98261.25;4952905;28;4179;-62
2023/03/10 09:10:16;;;;;;;;;;;;;;;21.73;45.02;98274.19;4955661;28;5396;-62
2023/03/10 09:12:42;;;;;;;;;;;;;;;21.77;45.10;98267.00;4956700;28;5232;-63
2023/03/10 09:15:08;;;;;;;;;;;;;;;21.81;45.13;98273.50;4957681;28;4205;-61
2023/03/10 09:17:35;;;;;;;;;;;;;;;21.89;45.07;98276.34;4956293;28;5333;-64
2023/03/10 09:20:08;;;;;;;;;;;;;;;21.93;44.70;98285.00;4954896;28;4148;-62
2023/03/10 09:22:34;;;;;;;;;;;;;;;21.93;44.78;98287.16;4955262;28;4207;-65
2023/03/10 09:25:00;;;;;;;;;;;;;;;21.90;45.07;98279.97;4953918;28;4609;-62
2023/03/10 09:27:27;;;;;;;;;;;;;;;21.95;44.87;98281.41;4954233;28;4327;-64
2023/03/10 09:29:53;;;;;;;;;;;;;;;21.96;44.86;98297.22;4953028;28;4184;-63
2023/03/10 09:32:19;;;;;;;;;;;;;;;21.95;44.64;98284.28;4957672;28;4187;-62
2023/03/10 09:34:46;;;;;;;;;;;;;;;21.93;44.89;98284.28;4955186;28;5228;-61
2023/03/10 09:37:12;;;;;;;;;;;;;;;21.95;45.25;98298.69;4952957;28;5239;-63
2023/03/10 09:39:39;;;;;;;;;;;;;;;21.96;44.96;98306.59;4951606;28;4168;-63
2023/03/10 09:42:05;;;;;;;;;;;;;;;21.93;45.33;98308.03;4952933;28;5416;-61
2023/03/10 09:44:37;;;;;;;;;;;;;;;22.04;45.04;98308.03;4956748;28;4095;-63
2023/03/10 09:47:15;;;;;;;;;;;;;;;22.10;44.91;98325.31;4938545;28;5206;-63
2023/03/10 09:49:57;;;;;;;;;;;;;;;22.09;44.50;98313.06;4951929;28;4157;-63
2023/03/10 09:52:26;;;;;;;;;;;;;;;22.09;44.82;98323.88;4955512;28;5326;-62
2023/03/10 09:55:09;;;;;;;;;;;;;;;22.07;44.75;98321.72;4946144;28;4117;-61
2023/03/10 09:57:38;;;;;;;;;;;;;;;22.03;44.86;98323.88;4948186;28;5419;-61
2023/03/10 10:00:07;;;;;;;;;;;;;;;21.96;44.69;98331.81;4945390;28;4154;-61
2023/03/10 10:02:40;;;;;;;;;;;;;;;21.92;45.14;98334.69;4946638;28;5714;-61
2023/03/10 10:05:11;;;;;;;;;;;;;;;21.87;44.92;98339.00;4954539;28;4685;-61
2023/03/10 10:07:41;;;;;;;;;;;;;;;21.96;44.92;98340.44;4942751;28;5460;-61
2023/03/10 10:10:15;;;;;;;;;;;;;;;21.94;44.82;98343.31;4934067;28;4199;-61
2023/03/10 10:12:43;;;;;;;;;;;;;;;21.93;44.83;98330.38;4949929;28;4582;-61
2023/03/10 10:15:14;;;;;;;;;;;;;;;21.96;44.70;98326.75;4950202;28;4616;-61
2023/03/10 10:17:46;;;;;;;;;;;;;;;22.03;44.66;98336.13;4957687;28;4105;-62
2023/03/10 10:20:26;;;;;;;;;;;;;;;22.04;44.67;98343.34;4953333;28;5088;-61
2023/03/10 10:22:53;;;;;;;;;;;;;;;22.05;44.95;98341.16;4945817;28;4270;-61
2023/03/10 10:25:20;;;;;;;;;;;;;;;22.07;44.99;98344.06;4955420;28;4036;-61
2023/03/10 10:27:46;;;;;;;;;;;;;;;22.00;44.83;98354.84;4958363;28;4126;-61
2023/03/10 10:30:29;;;;;;;;;;;;;;;21.99;44.78;98344.78;4932677;28;4192;-61
2023/03/10 10:32:59;;;;;;;;;;;;;;;21.97;44.80;98350.53;4950147;28;4620;-61
2023/03/10 10:35:27;;;;;;;;;;;;;;;22.01;44.81;98353.41;4956145;28;4217;-61
2023/03/10 10:38:00;;;;;;;;;;;;;;;21.89;44.86;98356.28;4954378;28;4158;-62
2023/03/10 10:40:27;;;;;;;;;;;;;;;21.67;45.08;98354.09;4956469;28;4288;-61
2023/03/10 10:42:54;;;;;;;;;;;;;;;21.80;44.83;98352.69;4959531;28;4166;-61
2023/03/10 10:45:24;;;;;;;;;;;;;;;21.92;44.70;98363.50;4956764;28;4188;-61
2023/03/10 10:47:50;;;;;;;;;;;;;;;21.97;44.79;98356.31;4954865;28;4183;-63
2023/03/10 10:50:18;;;;;;;;;;;;;;;22.07;44.78;98362.06;4950137;28;4407;-62
2023/03/10 10:52:47;;;;;;;;;;;;;;;22.13;44.96;98364.22;4961215;28;4154;-62
2023/03/10 10:55:33;;;;;;;;;;;;;;;22.14;44.56;98366.38;4945433;28;4186;-62
2023/03/10 10:58:00;;;;;;;;;;;;;;;22.16;44.68;98363.50;4944645;28;4209;-62
2023/03/10 11:00:28;;;;;;;;;;;;;;;22.14;44.37;98369.25;4952490;28;4196;-62
2023/03/10 11:02:54;;;;;;;;;;;;;;;22.10;44.62;98368.53;4954166;28;4180;-62
2023/03/10 11:05:22;;;;;;;;;;;;;;;22.07;44.71;98379.34;4953342;28;4183;-61
2023/03/10 11:07:49;;;;;;;;;;;;;;;22.00;44.63;98363.50;4956741;28;5202;-62
2023/03/10 11:10:17;;;;;;;;;;;;;;;21.98;44.63;98360.63;4956423;28;4210;-64
2023/03/10 11:12:50;;;;;;;;;;;;;;;22.02;44.70;98359.91;4940262;28;5259;-63
2023/03/10 11:15:22;;;;;;;;;;;;;;;21.61;44.84;98354.13;4957675;28;4194;-64
2023/03/10 11:17:59;;;;;;;;;;;;;;;21.97;44.42;98356.31;4946881;28;5189;-64
2023/03/10 11:20:27;;;;;;;;;;;;;;;22.03;44.68;98364.94;4945169;28;4135;-64
2023/03/10 11:22:56;;;;;;;;;;;;;;;21.97;45.29;98364.94;4944559;28;4273;-64
2023/03/10 11:25:26;;;;;;;;;;;;;;;21.95;45.00;98380.06;4945429;28;5441;-63
2023/03/10 11:28:01;;;;;;;;;;;;;;;21.96;45.14;98377.91;4951055;28;4210;-64
2023/03/10 11:30:34;;;;;;;;;;;;;;;21.94;45.52;98375.75;4941687;28;4522;-65
2023/03/10 11:33:13;;;;;;;;;;;;;;;21.96;45.30;98375.03;4954565;28;4137;-65
2023/03/10 11:35:46;;;;;;;;;;;;;;;21.98;45.34;98371.44;4941828;28;4195;-68
2023/03/10 11:38:13;;;;;;;;;;;;;;;22.13;44.87;98370.72;4956776;28;5250;-63
2023/03/10 11:40:48;;;;;;;;;;;;;;;22.14;44.38;98369.25;4955943;28;4221;-64
2023/03/10 11:43:23;;;;;;;;;;;;;;;22.12;44.57;98368.53;4951624;28;4291;-62
2023/03/10 11:45:53;;;;;;;;;;;;;;;22.09;44.61;98370.00;4952840;28;6173;-63
2023/03/10 11:48:23;;;;;;;;;;;;;;;22.08;44.46;98363.50;4956772;28;4533;-64
2023/03/10 11:50:51;;;;;;;;;;;;;;;22.06;44.43;98377.91;4944798;28;4009;-68
2023/03/10 11:53:26;;;;;;;;;;;;;;;22.03;44.47;98367.81;4950557;28;5545;-67
2023/03/10 11:55:52;;;;;;;;;;;;;;;21.99;44.50;98372.84;4944154;28;4157;-66
2023/03/10 11:58:21;;;;;;;;;;;;;;;21.84;45.20;98369.97;4943111;28;5183;-68
2023/03/10 12:00:47;;;;;;;;;;;;;;;21.92;45.05;98369.25;4940213;28;5121;-64
2023/03/10 12:03:14;;;;;;;;;;;;;;;22.00;44.94;98368.56;4946739;28;4148;-64
2023/03/10 12:05:48;;;;;;;;;;;;;;;22.05;45.01;98367.09;4958970;28;4352;-66
2023/03/10 12:08:14;;;;;;;;;;;;;;;22.05;44.90;98370.69;4947345;28;4042;-65
2023/03/10 12:10:40;;;;;;;;;;;;;;;22.07;45.02;98367.09;4943924;28;4001;-66
2023/03/10 12:13:12;;;;;;;;;;;;;;;22.09;44.67;98375.75;4957750;28;4049;-65
2023/03/10 12:15:39;;;;;;;;;;;;;;;22.15;44.60;98372.84;4945705;28;4212;-62
2023/03/10 12:18:06;;;;;;;;;;;;;;;22.14;44.38;98372.13;4955016;28;6430;-63
2023/03/10 12:20:32;;;;;;;;;;;;;;;22.09;44.52;98376.47;4943758;28;4538;-65
2023/03/10 12:22:59;;;;;;;;;;;;;;;22.07;44.43;98379.34;4953857;28;4019;-65
2023/03/10 12:25:29;;;;;;;;;;;;;;;22.03;44.66;98385.09;4953814;28;4195;-66
2023/03/10 12:28:14;;;;;;;;;;;;;;;22.00;44.47;98380.06;4955282;28;4149;-65
2023/03/10 12:30:56;;;;;;;;;;;;;;;21.97;44.64;98382.25;4954684;28;4628;-65
2023/03/10 12:33:44;;;;;;;;;;;;;;;21.95;44.92;98379.34;4957384;28;4233;-65
2023/03/10 12:36:30;;;;;;;;;;;;;;;21.95;44.82;98371.44;4957257;28;4205;-66
2023/03/10 12:39:00;;;;;;;;;;;;;;;21.98;44.57;98371.44;4958640;28;5418;-67
2023/03/10 12:41:26;;;;;;;;;;;;;;;22.01;44.52;98370.69;4957625;28;4257;-64
2023/03/10 12:44:05;;;;;;;;;;;;;;;22.00;45.07;98359.91;4956151;28;4163;-68
2023/03/10 12:46:39;;;;;;;;;;;;;;;21.95;45.17;98367.81;4958619;28;5240;-68
2023/03/10 12:49:22;;;;;;;;;;;;;;;21.99;45.25;98362.06;4946788;28;4030;-69
2023/03/10 12:51:50;;;;;;;;;;;;;;;22.02;44.93;98366.38;4956669;28;4189;-69
2023/03/10 12:54:26;;;;;;;;;;;;;;;22.02;45.22;98375.03;4960181;28;4210;-68
2023/03/10 12:57:01;;;;;;;;;;;;;;;22.08;44.92;98369.28;4957474;28;5216;-68
2023/03/10 12:59:33;;;;;;;;;;;;;;;20.35;42.84;98367.22;4947842;28;4120;-68
2023/03/10 13:01:59;;;;;;;;;;;;;;;16.05;52.72;98358.44;4937098;28;4184;-66